Terminal Aerodrome Forecast
Issued by NWS

Home | Current Version | Previous Version | Text Only | Print | Product List | Glossary On
Versions: 1 2 3 4 5 6 7 8 9 10 11 12 13 14 15 16 17 18 19 20 21 22 23 24
898
FTUS43 KPAH 200246 AAA
TAFCGI
TAF AMD
KCGI 200246Z 2003/2024 20008KT 3SM -SHRA BR OVC002
      TEMPO 2003/2005 1SM -DZ BR OVC001
     FM200500 VRB02KT 1 1/2SM BR VCSH OVC003
     FM200600 VRB02KT 3SM BR OVC003
     FM201400 18005KT 4SM BR OVC005
     FM201800 19009KT 6SM BR OVC012=

USA.gov is the U.S. government's official web portal to all federal, state and local government web resources and services.